sensor_id;sensor_type;location;lat;lon;timestamp;pressure;altitude;pressure_sealevel;temperature;humidity
9281;BME280;4679;47.966;7.958;2023-02-02T06:59:42;98151.53;;;5.48;71.47
9281;BME280;4679;47.966;7.958;2023-02-02T07:01:44;98154.59;;;5.52;71.83
9281;BME280;4679;47.966;7.958;2023-02-02T07:03:47;98153.78;;;5.51;70.60
9281;BME280;4679;47.966;7.958;2023-02-02T07:05:49;98159.66;;;5.53;71.11
9281;BME280;4679;47.966;7.958;2023-02-02T07:07:51;98171.19;;;5.52;70.78
9281;BME280;4679;47.966;7.958;2023-02-02T07:09:52;98167.75;;;5.52;71.23
9281;BME280;4679;47.966;7.958;2023-02-02T07:11:54;98166.94;;;5.51;70.72
9281;BME280;4679;47.966;7.958;2023-02-02T07:13:56;98167.75;;;5.52;71.36
9281;BME280;4679;47.966;7.958;2023-02-02T07:15:59;98175.03;;;5.50;71.52
9281;BME280;4679;47.966;7.958;2023-02-02T07:18:00;98169.56;;;5.51;70.59
9281;BME280;4679;47.966;7.958;2023-02-02T07:20:02;98156.78;;;5.48;71.16
9281;BME280;4679;47.966;7.958;2023-02-02T07:22:04;98167.13;;;5.50;71.71
9281;BME280;4679;47.966;7.958;2023-02-02T07:24:07;98169.56;;;5.51;71.57
9281;BME280;4679;47.966;7.958;2023-02-02T07:26:09;98172.81;;;5.53;71.19
9281;BME280;4679;47.966;7.958;2023-02-02T07:28:12;98160.47;;;5.54;70.97
9281;BME280;4679;47.966;7.958;2023-02-02T07:30:14;98167.19;;;5.56;71.03
9281;BME280;4679;47.966;7.958;2023-02-02T07:32:17;98177.19;;;5.61;70.81
9281;BME280;4679;47.966;7.958;2023-02-02T07:34:19;98175.38;;;5.61;71.39
9281;BME280;4679;47.966;7.958;2023-02-02T07:36:22;98179.44;;;5.64;71.43
9281;BME280;4679;47.966;7.958;2023-02-02T07:38:24;98177.41;;;5.66;70.42
9281;BME280;4679;47.966;7.958;2023-02-02T07:40:26;98181.09;;;5.65;71.47
9281;BME280;4679;47.966;7.958;2023-02-02T07:42:28;98174.78;;;5.66;71.04
9281;BME280;4679;47.966;7.958;2023-02-02T07:44:29;98176.00;;;5.63;70.56
9281;BME280;4679;47.966;7.958;2023-02-02T07:46:31;98178.81;;;5.62;70.33
9281;BME280;4679;47.966;7.958;2023-02-02T07:48:34;98189.59;;;5.67;71.47
9281;BME280;4679;47.966;7.958;2023-02-02T07:50:36;98188.97;;;5.65;71.29
9281;BME280;4679;47.966;7.958;2023-02-02T07:52:38;98187.75;;;5.68;71.43
9281;BME280;4679;47.966;7.958;2023-02-02T07:54:39;98187.59;;;5.69;70.46
9281;BME280;4679;47.966;7.958;2023-02-02T07:56:41;98190.03;;;5.71;71.08
9281;BME280;4679;47.966;7.958;2023-02-02T07:58:43;98190.22;;;5.69;70.74
9281;BME280;4679;47.966;7.958;2023-02-02T08:00:45;98175.59;;;5.66;70.82
9281;BME280;4679;47.966;7.958;2023-02-02T08:02:47;98180.88;;;5.66;70.27
9281;BME280;4679;47.966;7.958;2023-02-02T08:04:50;98182.50;;;5.68;70.50
9281;BME280;4679;47.966;7.958;2023-02-02T08:06:52;98180.88;;;5.66;70.32
9281;BME280;4679;47.966;7.958;2023-02-02T08:08:54;98186.94;;;5.67;71.55
9281;BME280;4679;47.966;7.958;2023-02-02T08:10:56;98191.41;;;5.66;71.53
9281;BME280;4679;47.966;7.958;2023-02-02T08:12:57;98185.13;;;5.68;70.89
9281;BME280;4679;47.966;7.958;2023-02-02T08:14:59;98184.13;;;5.69;71.15
9281;BME280;4679;47.966;7.958;2023-02-02T08:17:00;98185.75;;;5.70;70.17
9281;BME280;4679;47.966;7.958;2023-02-02T08:19:03;98185.59;;;5.71;70.44
9281;BME280;4679;47.966;7.958;2023-02-02T08:21:06;98179.31;;;5.72;70.85
9281;BME280;4679;47.966;7.958;2023-02-02T08:23:08;98178.13;;;5.75;71.24
9281;BME280;4679;47.966;7.958;2023-02-02T08:25:15;98180.59;;;5.76;71.13
9281;BME280;4679;47.966;7.958;2023-02-02T08:27:16;98173.50;;;5.77;70.49
9281;BME280;4679;47.966;7.958;2023-02-02T08:29:18;98173.69;;;5.75;70.95
9281;BME280;4679;47.966;7.958;2023-02-02T08:31:21;98164.78;;;5.76;71.09
9281;BME280;4679;47.966;7.958;2023-02-02T08:33:23;98168.88;;;5.79;71.19
9281;BME280;4679;47.966;7.958;2023-02-02T08:35:25;98164.41;;;5.79;71.36
9281;BME280;4679;47.966;7.958;2023-02-02T08:37:28;98162.38;;;5.81;70.19
9281;BME280;4679;47.966;7.958;2023-02-02T08:39:30;98168.09;;;5.85;71.04
9281;BME280;4679;47.966;7.958;2023-02-02T08:41:32;98175.81;;;5.86;70.29
9281;BME280;4679;47.966;7.958;2023-02-02T08:43:34;98177.13;;;5.90;70.52
9281;BME280;4679;47.966;7.958;2023-02-02T08:45:35;98188.09;;;5.94;71.26
9281;BME280;4679;47.966;7.958;2023-02-02T08:47:37;98187.09;;;5.95;70.58
9281;BME280;4679;47.966;7.958;2023-02-02T08:49:39;98181.63;;;5.96;70.63
9281;BME280;4679;47.966;7.958;2023-02-02T08:51:41;98188.50;;;5.97;70.33
9281;BME280;4679;47.966;7.958;2023-02-02T08:53:45;98193.41;;;6.00;70.55
9281;BME280;4679;47.966;7.958;2023-02-02T08:55:47;98193.22;;;6.02;69.75
9281;BME280;4679;47.966;7.958;2023-02-02T08:57:49;98197.31;;;6.05;70.31
9281;BME280;4679;47.966;7.958;2023-02-02T08:59:50;98208.84;;;6.04;70.89
9281;BME280;4679;47.966;7.958;2023-02-02T09:01:52;98205.22;;;6.05;70.30
9281;BME280;4679;47.966;7.958;2023-02-02T09:03:55;98198.50;;;6.02;70.00
9281;BME280;4679;47.966;7.958;2023-02-02T09:05:56;98210.84;;;6.02;69.91
9281;BME280;4679;47.966;7.958;2023-02-02T09:07:58;98221.38;;;6.02;69.84
9281;BME280;4679;47.966;7.958;2023-02-02T09:10:01;98218.94;;;6.00;70.29
9281;BME280;4679;47.966;7.958;2023-02-02T09:12:03;98225.03;;;6.00;70.73
9281;BME280;4679;47.966;7.958;2023-02-02T09:14:05;98218.94;;;6.00;70.14
9281;BME280;4679;47.966;7.958;2023-02-02T09:16:10;98220.56;;;6.01;70.20
9281;BME280;4679;47.966;7.958;2023-02-02T09:18:12;98222.84;;;6.04;70.66
9281;BME280;4679;47.966;7.958;2023-02-02T09:20:13;98238.47;;;6.06;69.85
9281;BME280;4679;47.966;7.958;2023-02-02T09:22:15;98244.56;;;6.06;70.06
9281;BME280;4679;47.966;7.958;2023-02-02T09:24:17;98241.91;;;6.06;70.00
9281;BME280;4679;47.966;7.958;2023-02-02T09:26:22;98239.28;;;6.06;70.08
9281;BME280;4679;47.966;7.958;2023-02-02T09:28:23;98247.19;;;6.06;70.24
9281;BME280;4679;47.966;7.958;2023-02-02T09:30:25;98241.72;;;6.08;70.06
9281;BME280;4679;47.966;7.958;2023-02-02T09:32:27;98252.09;;;6.09;69.53
9281;BME280;4679;47.966;7.958;2023-02-02T09:34:28;98252.69;;;6.11;70.56
9281;BME280;4679;47.966;7.958;2023-02-02T09:36:30;98252.69;;;6.11;69.73
9281;BME280;4679;47.966;7.958;2023-02-02T09:38:32;98251.69;;;6.12;70.10
9281;BME280;4679;47.966;7.958;2023-02-02T09:40:34;98253.59;;;6.18;69.93
9281;BME280;4679;47.966;7.958;2023-02-02T09:42:50;98257.50;;;6.22;70.38
9281;BME280;4679;47.966;7.958;2023-02-02T09:45:01;98255.91;;;6.28;69.83
9281;BME280;4679;47.966;7.958;2023-02-02T09:47:11;98264.25;;;6.31;70.22
9281;BME280;4679;47.966;7.958;2023-02-02T09:49:19;98271.97;;;6.33;69.86
9281;BME280;4679;47.966;7.958;2023-02-02T09:51:28;98279.34;;;6.38;69.18
9281;BME280;4679;47.966;7.958;2023-02-02T09:53:40;98279.97;;;6.40;68.88
9281;BME280;4679;47.966;7.958;2023-02-02T09:55:45;98283.00;;;6.43;69.36
9281;BME280;4679;47.966;7.958;2023-02-02T09:57:52;98277.75;;;6.43;69.92
9281;BME280;4679;47.966;7.958;2023-02-02T09:59:55;98300.06;;;6.41;69.02
9281;BME280;4679;47.966;7.958;2023-02-02T10:02:02;98294.97;;;6.39;69.54
9281;BME280;4679;47.966;7.958;2023-02-02T10:04:12;98294.34;;;6.37;68.80
9281;BME280;4679;47.966;7.958;2023-02-02T10:06:28;98282.53;;;6.33;70.10
9281;BME280;4679;47.966;7.958;2023-02-02T10:08:36;98285.34;;;6.31;69.76
9281;BME280;4679;47.966;7.958;2023-02-02T10:10:41;98296.06;;;6.30;69.08
9281;BME280;4679;47.966;7.958;2023-02-02T10:12:48;98297.88;;;6.29;70.31
9281;BME280;4679;47.966;7.958;2023-02-02T10:14:57;98304.16;;;6.28;69.66
9281;BME280;4679;47.966;7.958;2023-02-02T10:17:07;98286.34;;;6.30;69.65
9281;BME280;4679;47.966;7.958;2023-02-02T10:19:17;98296.25;;;6.28;70.33
9281;BME280;4679;47.966;7.958;2023-02-02T10:21:25;98299.06;;;6.27;70.40
9281;BME280;4679;47.966;7.958;2023-02-02T10:23:32;98296.66;;;6.25;69.00
9281;BME280;4679;47.966;7.958;2023-02-02T10:25:36;98289.94;;;6.23;70.34
9281;BME280;4679;47.966;7.958;2023-02-02T10:27:46;98295.00;;;6.24;70.30
9281;BME280;4679;47.966;7.958;2023-02-02T10:29:58;98300.88;;;6.26;70.31
9281;BME280;4679;47.966;7.958;2023-02-02T10:32:08;98305.97;;;6.28;69.03
9281;BME280;4679;47.966;7.958;2023-02-02T10:34:16;98314.69;;;6.28;69.43
9281;BME280;4679;47.966;7.958;2023-02-02T10:36:27;98316.34;;;6.29;69.22
9281;BME280;4679;47.966;7.958;2023-02-02T10:38:37;98303.16;;;6.29;69.91
9281;BME280;4679;47.966;7.958;2023-02-02T10:40:46;98312.06;;;6.28;69.39
9281;BME280;4679;47.966;7.958;2023-02-02T10:43:20;98306.78;;;6.28;70.46
9281;BME280;4679;47.966;7.958;2023-02-02T10:45:47;98295.25;;;6.29;69.96
9281;BME280;4679;47.966;7.958;2023-02-02T10:47:50;98292.25;;;6.32;70.37
9281;BME280;4679;47.966;7.958;2023-02-02T10:50:09;98295.50;;;6.34;70.50
9281;BME280;4679;47.966;7.958;2023-02-02T10:52:17;98297.97;;;6.36;70.36
9281;BME280;4679;47.966;7.958;2023-02-02T10:54:31;98294.34;;;6.37;69.64
9281;BME280;4679;47.966;7.958;2023-02-02T10:56:40;98299.59;;;6.37;70.16
9281;BME280;4679;47.966;7.958;2023-02-02T10:58:49;98300.41;;;6.38;70.32
9281;BME280;4679;47.966;7.958;2023-02-02T11:00:55;98313.41;;;6.39;69.55
9281;BME280;4679;47.966;7.958;2023-02-02T11:02:57;98308.31;;;6.38;70.43
9281;BME280;4679;47.966;7.958;2023-02-02T11:05:04;98296.69;;;6.32;69.99
9281;BME280;4679;47.966;7.958;2023-02-02T11:07:23;98304.75;;;6.24;70.77
9281;BME280;4679;47.966;7.958;2023-02-02T11:09:29;98305.28;;;6.19;71.07
9281;BME280;4679;47.966;7.958;2023-02-02T11:11:34;98315.19;;;6.17;71.18
9281;BME280;4679;47.966;7.958;2023-02-02T11:13:41;98309.09;;;6.17;70.69
9281;BME280;4679;47.966;7.958;2023-02-02T11:15:44;98308.28;;;6.16;70.85
9281;BME280;4679;47.966;7.958;2023-02-02T11:17:47;98313.38;;;6.18;70.54
9281;BME280;4679;47.966;7.958;2023-02-02T11:19:49;98300.03;;;6.19;70.78
9281;BME280;4679;47.966;7.958;2023-02-02T11:21:53;98288.22;;;6.15;70.92
9281;BME280;4679;47.966;7.958;2023-02-02T11:23:59;98287.16;;;6.10;70.83
9281;BME280;4679;47.966;7.958;2023-02-02T11:26:02;98289.34;;;6.06;71.12
9281;BME280;4679;47.966;7.958;2023-02-02T11:28:10;98285.06;;;6.05;71.79
9281;BME280;4679;47.966;7.958;2023-02-02T11:30:22;98274.16;;;6.08;71.63
9281;BME280;4679;47.966;7.958;2023-02-02T11:32:27;98275.41;;;6.12;71.21
9281;BME280;4679;47.966;7.958;2023-02-02T11:34:31;98276.22;;;6.13;70.58
9281;BME280;4679;47.966;7.958;2023-02-02T11:36:32;98268.94;;;6.15;71.52
9281;BME280;4679;47.966;7.958;2023-02-02T11:38:34;98269.59;;;6.17;71.61
9281;BME280;4679;47.966;7.958;2023-02-02T11:40:38;98271.03;;;6.19;71.30
9281;BME280;4679;47.966;7.958;2023-02-02T11:42:43;98278.38;;;6.24;71.31
9281;BME280;4679;47.966;7.958;2023-02-02T11:44:49;98267.06;;;6.30;70.26
9281;BME280;4679;47.966;7.958;2023-02-02T11:46:52;98256.97;;;6.33;70.26
9281;BME280;4679;47.966;7.958;2023-02-02T11:48:59;98260.69;;;6.39;71.16
9281;BME280;4679;47.966;7.958;2023-02-02T11:51:03;98267.19;;;6.43;70.25
9281;BME280;4679;47.966;7.958;2023-02-02T11:53:18;98270.91;;;6.49;70.04
9281;BME280;4679;47.966;7.958;2023-02-02T11:55:25;98263.25;;;6.54;70.56
9281;BME280;4679;47.966;7.958;2023-02-02T11:57:27;98268.94;;;6.57;70.22
9281;BME280;4679;47.966;7.958;2023-02-02T11:59:32;98260.84;;;6.59;70.73
9281;BME280;4679;47.966;7.958;2023-02-02T12:01:36;98259.66;;;6.61;69.92
9281;BME280;4679;47.966;7.958;2023-02-02T12:03:39;98264.75;;;6.63;70.17
9281;BME280;4679;47.966;7.958;2023-02-02T12:05:40;98268.19;;;6.63;69.34
9281;BME280;4679;47.966;7.958;2023-02-02T12:09:31;98263.81;;;6.70;70.27
9281;BME280;4679;47.966;7.958;2023-02-02T12:11:39;98269.91;;;6.71;69.53
9281;BME280;4679;47.966;7.958;2023-02-02T12:13:51;98279.44;;;6.72;69.15
9281;BME280;4679;47.966;7.958;2023-02-02T12:16:08;98287.38;;;6.72;70.01
9281;BME280;4679;47.966;7.958;2023-02-02T12:18:20;98282.69;;;6.74;70.27
9281;BME280;4679;47.966;7.958;2023-02-02T12:20:31;98275.78;;;6.73;69.00
9281;BME280;4679;47.966;7.958;2023-02-02T12:23:01;98271.13;;;6.75;69.51
9281;BME280;4679;47.966;7.958;2023-02-02T12:25:22;98273.13;;;6.73;69.57
9281;BME280;4679;47.966;7.958;2023-02-02T12:27:38;98266.25;;;6.72;69.34
9281;BME280;4679;47.966;7.958;2023-02-02T12:30:08;98268.09;;;6.72;69.04
9281;BME280;4679;47.966;7.958;2023-02-02T12:32:21;98268.09;;;6.72;69.52
9281;BME280;4679;47.966;7.958;2023-02-02T12:34:31;98268.28;;;6.70;69.25
9281;BME280;4679;47.966;7.958;2023-02-02T12:36:48;98264.81;;;6.69;68.95
9281;BME280;4679;47.966;7.958;2023-02-02T12:39:08;98259.91;;;6.66;69.74
9281;BME280;4679;47.966;7.958;2023-02-02T12:41:26;98264.38;;;6.66;68.70
9281;BME280;4679;47.966;7.958;2023-02-02T12:43:37;98270.03;;;6.63;69.01
9281;BME280;4679;47.966;7.958;2023-02-02T12:45:54;98269.03;;;6.64;68.73
9281;BME280;4679;47.966;7.958;2023-02-02T12:48:09;98262.75;;;6.65;68.59
9281;BME280;4679;47.966;7.958;2023-02-02T12:50:23;98264.56;;;6.64;69.03
9281;BME280;4679;47.966;7.958;2023-02-02T12:52:39;98256.84;;;6.63;68.60
9281;BME280;4679;47.966;7.958;2023-02-02T12:55:00;98257.03;;;6.61;69.27
9281;BME280;4679;47.966;7.958;2023-02-02T12:57:13;98259.84;;;6.60;68.96
9281;BME280;4679;47.966;7.958;2023-02-02T12:59:29;98255.16;;;6.55;68.94
9281;BME280;4679;47.966;7.958;2023-02-02T13:01:44;98273.63;;;6.55;69.28
9281;BME280;4679;47.966;7.958;2023-02-02T13:04:03;98260.81;;;6.52;69.66
9281;BME280;4679;47.966;7.958;2023-02-02T13:06:26;98267.47;;;6.48;69.44
9281;BME280;4679;47.966;7.958;2023-02-02T13:08:36;98269.66;;;6.45;69.68
9281;BME280;4679;47.966;7.958;2023-02-02T13:10:43;98274.50;;;6.41;68.75
9281;BME280;4679;47.966;7.958;2023-02-02T13:12:51;98272.06;;;6.40;70.09
9281;BME280;4679;47.966;7.958;2023-02-02T13:14:56;98270.59;;;6.37;70.00
9281;BME280;4679;47.966;7.958;2023-02-02T13:17:06;98275.88;;;6.37;69.14
9281;BME280;4679;47.966;7.958;2023-02-02T13:19:13;98270.78;;;6.35;69.53
9281;BME280;4679;47.966;7.958;2023-02-02T13:21:20;98269.78;;;6.37;69.77
9281;BME280;4679;47.966;7.958;2023-02-02T13:23:27;98263.69;;;6.36;70.49
9281;BME280;4679;47.966;7.958;2023-02-02T13:25:34;98267.97;;;6.37;70.20
9281;BME280;4679;47.966;7.958;2023-02-02T13:27:38;98258.25;;;6.38;69.83
9281;BME280;4679;47.966;7.958;2023-02-02T13:29:44;98260.88;;;6.38;69.37
9281;BME280;4679;47.966;7.958;2023-02-02T13:31:50;98261.88;;;6.37;70.11
9281;BME280;4679;47.966;7.958;2023-02-02T13:34:01;98260.88;;;6.38;69.40
9281;BME280;4679;47.966;7.958;2023-02-02T13:36:09;98264.34;;;6.38;70.45
9281;BME280;4679;47.966;7.958;2023-02-02T13:38:18;98252.78;;;6.39;70.65
9281;BME280;4679;47.966;7.958;2023-02-02T13:40:25;98262.31;;;6.40;69.73
9281;BME280;4679;47.966;7.958;2023-02-02T13:42:35;98271.25;;;6.39;70.61
9281;BME280;4679;47.966;7.958;2023-02-02T13:44:46;98265.97;;;6.39;69.50
9281;BME280;4679;47.966;7.958;2023-02-02T13:46:55;98271.25;;;6.39;70.03
9281;BME280;4679;47.966;7.958;2023-02-02T13:49:03;98275.50;;;6.40;70.28
9281;BME280;4679;47.966;7.958;2023-02-02T13:51:43;98280.56;;;6.42;69.42
9281;BME280;4679;47.966;7.958;2023-02-02T13:53:55;98280.56;;;6.42;69.65
9281;BME280;4679;47.966;7.958;2023-02-02T13:56:12;98280.78;;;6.40;70.61
9281;BME280;4679;47.966;7.958;2023-02-02T13:58:40;98284.41;;;6.39;70.50
9281;BME280;4679;47.966;7.958;2023-02-02T14:00:47;98285.78;;;6.35;69.41
9281;BME280;4679;47.966;7.958;2023-02-02T14:02:52;98288.78;;;6.32;70.01
9281;BME280;4679;47.966;7.958;2023-02-02T14:04:56;98287.34;;;6.29;69.63
9281;BME280;4679;47.966;7.958;2023-02-02T14:07:01;98283.06;;;6.28;70.69
9281;BME280;4679;47.966;7.958;2023-02-02T14:09:05;98285.88;;;6.27;70.42
9281;BME280;4679;47.966;7.958;2023-02-02T14:11:07;98289.56;;;6.26;69.93
9281;BME280;4679;47.966;7.958;2023-02-02T14:13:17;98287.94;;;6.25;70.67
9281;BME280;4679;47.966;7.958;2023-02-02T14:15:38;98294.00;;;6.25;71.08
9281;BME280;4679;47.966;7.958;2023-02-02T14:17:53;98301.28;;;6.23;70.28
9281;BME280;4679;47.966;7.958;2023-02-02T14:19:56;98297.66;;;6.24;70.37
9281;BME280;4679;47.966;7.958;2023-02-02T14:22:00;98305.38;;;6.26;69.88
9281;BME280;4679;47.966;7.958;2023-02-02T14:24:35;98299.84;;;6.21;70.15
9281;BME280;4679;47.966;7.958;2023-02-02T14:26:42;98309.75;;;6.19;71.23
9281;BME280;4679;47.966;7.958;2023-02-02T14:28:47;98301.56;;;6.14;70.94
9281;BME280;4679;47.966;7.958;2023-02-02T14:33:39;98318.31;;;6.06;70.82
9281;BME280;4679;47.966;7.958;2023-02-02T14:35:58;98331.84;;;6.03;70.64
9281;BME280;4679;47.966;7.958;2023-02-02T14:38:04;98331.22;;;6.01;71.06
9281;BME280;4679;47.966;7.958;2023-02-02T14:40:24;98328.94;;;5.98;70.50
9281;BME280;4679;47.966;7.958;2023-02-02T14:42:42;98331.97;;;5.95;71.09
9281;BME280;4679;47.966;7.958;2023-02-02T14:45:21;98334.78;;;5.93;70.86
9281;BME280;4679;47.966;7.958;2023-02-02T14:47:51;98328.69;;;5.93;71.67
9281;BME280;4679;47.966;7.958;2023-02-02T14:49:56;98331.34;;;5.93;71.78
9281;BME280;4679;47.966;7.958;2023-02-02T14:52:00;98333.56;;;5.96;71.77
9281;BME280;4679;47.966;7.958;2023-02-02T14:54:05;98328.94;;;5.98;71.36
9281;BME280;4679;47.966;7.958;2023-02-02T14:56:09;98327.59;;;6.02;71.69
9281;BME280;4679;47.966;7.958;2023-02-02T14:58:22;98326.22;;;6.06;72.07
9281;BME280;4679;47.966;7.958;2023-02-02T15:00:28;98326.69;;;6.10;71.39
9281;BME280;4679;47.966;7.958;2023-02-02T15:02:33;98328.09;;;6.12;71.74
9281;BME280;4679;47.966;7.958;2023-02-02T15:04:36;98333.00;;;6.15;71.95
9281;BME280;4679;47.966;7.958;2023-02-02T15:06:40;98328.81;;;6.21;70.88
9281;BME280;4679;47.966;7.958;2023-02-02T15:08:42;98341.81;;;6.22;71.61
9281;BME280;4679;47.966;7.958;2023-02-02T15:11:01;98336.19;;;6.25;70.78
9281;BME280;4679;47.966;7.958;2023-02-02T15:13:23;98337.19;;;6.24;70.97
9281;BME280;4679;47.966;7.958;2023-02-02T15:15:27;98335.38;;;6.25;71.75
9281;BME280;4679;47.966;7.958;2023-02-02T15:17:37;98345.50;;;6.28;70.92
9281;BME280;4679;47.966;7.958;2023-02-02T15:19:46;98343.88;;;6.27;71.04
9281;BME280;4679;47.966;7.958;2023-02-02T15:21:54;98339.63;;;6.26;72.03
9281;BME280;4679;47.966;7.958;2023-02-02T15:23:57;98338.81;;;6.25;71.45
9281;BME280;4679;47.966;7.958;2023-02-02T15:26:03;98346.72;;;6.25;71.13
9281;BME280;4679;47.966;7.958;2023-02-02T15:28:12;98348.53;;;6.25;71.12
9281;BME280;4679;47.966;7.958;2023-02-02T15:30:18;98345.09;;;6.24;71.24
9281;BME280;4679;47.966;7.958;2023-02-02T15:32:23;98343.63;;;6.22;71.78
9281;BME280;4679;47.966;7.958;2023-02-02T15:34:36;98348.28;;;6.20;71.00
9281;BME280;4679;47.966;7.958;2023-02-02T15:36:41;98338.72;;;6.19;70.95
9281;BME280;4679;47.966;7.958;2023-02-02T15:38:47;98341.53;;;6.17;71.54
9281;BME280;4679;47.966;7.958;2023-02-02T15:40:50;98349.63;;;6.16;71.63
9281;BME280;4679;47.966;7.958;2023-02-02T15:42:54;98343.53;;;6.15;71.47
9281;BME280;4679;47.966;7.958;2023-02-02T15:44:57;98347.19;;;6.14;72.10
9281;BME280;4679;47.966;7.958;2023-02-02T15:46:59;98351.91;;;6.19;72.13
9281;BME280;4679;47.966;7.958;2023-02-02T15:49:19;98351.09;;;6.18;71.51
9281;BME280;4679;47.966;7.958;2023-02-02T15:51:23;98359.81;;;6.19;71.66
9281;BME280;4679;47.966;7.958;2023-02-02T15:53:46;98358.00;;;6.19;71.39
9281;BME280;4679;47.966;7.958;2023-02-02T15:55:50;98372.63;;;6.22;72.12
9281;BME280;4679;47.966;7.958;2023-02-02T15:57:52;98368.34;;;6.21;71.91
9281;BME280;4679;47.966;7.958;2023-02-02T15:59:55;98371.44;;;6.24;72.13
9281;BME280;4679;47.966;7.958;2023-02-02T16:02:07;98382.59;;;6.26;71.69
9281;BME280;4679;47.966;7.958;2023-02-02T16:04:19;98379.59;;;6.29;71.80
9281;BME280;4679;47.966;7.958;2023-02-02T16:06:24;98385.84;;;6.28;70.88
9281;BME280;4679;47.966;7.958;2023-02-02T16:08:28;98378.78;;;6.29;71.09
9281;BME280;4679;47.966;7.958;2023-02-02T16:10:34;98364.97;;;6.27;71.96
9281;BME280;4679;47.966;7.958;2023-02-02T16:12:38;98376.13;;;6.29;71.08
9281;BME280;4679;47.966;7.958;2023-02-02T16:14:40;98384.69;;;6.31;70.79
9281;BME280;4679;47.966;7.958;2023-02-02T16:16:42;98384.84;;;6.29;71.58
9281;BME280;4679;47.966;7.958;2023-02-02T16:18:44;98386.03;;;6.27;71.43
9281;BME280;4679;47.966;7.958;2023-02-02T16:20:47;98388.69;;;6.27;70.98
9281;BME280;4679;47.966;7.958;2023-02-02T16:22:49;98386.84;;;6.27;71.93
9281;BME280;4679;47.966;7.958;2023-02-02T16:24:54;98395.59;;;6.28;70.82
9281;BME280;4679;47.966;7.958;2023-02-02T16:26:58;98391.75;;;6.30;70.99
9281;BME280;4679;47.966;7.958;2023-02-02T16:29:02;98397.22;;;6.29;71.03
9281;BME280;4679;47.966;7.958;2023-02-02T16:31:05;98399.03;;;6.28;72.27
9281;BME280;4679;47.966;7.958;2023-02-02T16:33:29;98401.50;;;6.30;71.82
9281;BME280;4679;47.966;7.958;2023-02-02T16:35:36;98403.31;;;6.29;71.13
9281;BME280;4679;47.966;7.958;2023-02-02T16:37:38;98407.59;;;6.30;72.18
9281;BME280;4679;47.966;7.958;2023-02-02T16:39:40;98406.59;;;6.31;72.25
9281;BME280;4679;47.966;7.958;2023-02-02T16:41:41;98418.75;;;6.32;71.71
9281;BME280;4679;47.966;7.958;2023-02-02T16:43:46;98411.50;;;6.34;71.04
9281;BME280;4679;47.966;7.958;2023-02-02T16:45:51;98413.75;;;6.38;71.89
9281;BME280;4679;47.966;7.958;2023-02-02T16:48:16;98413.59;;;6.39;70.95
9281;BME280;4679;47.966;7.958;2023-02-02T16:50:30;98411.59;;;6.41;71.13
9281;BME280;4679;47.966;7.958;2023-02-02T16:52:32;98420.28;;;6.42;71.52
9281;BME280;4679;47.966;7.958;2023-02-02T16:54:36;98403.47;;;6.43;71.80
9281;BME280;4679;47.966;7.958;2023-02-02T16:56:39;98410.38;;;6.44;71.59
9281;BME280;4679;47.966;7.958;2023-02-02T16:58:43;98416.09;;;6.47;70.93
9281;BME280;4679;47.966;7.958;2023-02-02T17:00:59;98415.56;;;6.52;70.98
9281;BME280;4679;47.966;7.958;2023-02-02T17:03:06;98424.28;;;6.52;70.83
9281;BME280;4679;47.966;7.958;2023-02-02T17:05:17;98422.47;;;6.53;70.55
9281;BME280;4679;47.966;7.958;2023-02-02T17:07:20;98427.72;;;6.53;71.80
9281;BME280;4679;47.966;7.958;2023-02-02T17:09:30;98442.19;;;6.57;71.32
9281;BME280;4679;47.966;7.958;2023-02-02T17:11:31;98436.53;;;6.60;70.74
9281;BME280;4679;47.966;7.958;2023-02-02T17:13:38;98441.16;;;6.58;71.57
9281;BME280;4679;47.966;7.958;2023-02-02T17:15:40;98447.47;;;6.57;71.11
9281;BME280;4679;47.966;7.958;2023-02-02T17:17:43;98450.09;;;6.57;70.97
9281;BME280;4679;47.966;7.958;2023-02-02T17:19:47;98452.09;;;6.55;71.13
9281;BME280;4679;47.966;7.958;2023-02-02T17:21:48;98461.44;;;6.57;71.23
9281;BME280;4679;47.966;7.958;2023-02-02T17:23:50;98462.66;;;6.55;71.63
9281;BME280;4679;47.966;7.958;2023-02-02T17:25:53;98465.09;;;6.56;70.41
9281;BME280;4679;47.966;7.958;2023-02-02T17:27:57;98476.06;;;6.60;71.16
9281;BME280;4679;47.966;7.958;2023-02-02T17:29:59;98470.25;;;6.64;70.38
9281;BME280;4679;47.966;7.958;2023-02-02T17:32:01;98473.06;;;6.63;71.17
9281;BME280;4679;47.966;7.958;2023-02-02T17:34:08;98478.53;;;6.61;70.46
9281;BME280;4679;47.966;7.958;2023-02-02T17:36:12;98481.16;;;6.61;71.25
9281;BME280;4679;47.966;7.958;2023-02-02T17:38:13;98477.91;;;6.59;70.96
9281;BME280;4679;47.966;7.958;2023-02-02T17:40:18;98470.38;;;6.56;71.32
9281;BME280;4679;47.966;7.958;2023-02-02T17:42:23;98479.47;;;6.54;71.01
9281;BME280;4679;47.966;7.958;2023-02-02T17:44:25;98486.75;;;6.52;70.85
9281;BME280;4679;47.966;7.958;2023-02-02T17:46:27;98485.28;;;6.49;70.30
9281;BME280;4679;47.966;7.958;2023-02-02T17:48:30;98491.38;;;6.50;70.97
9281;BME280;4679;47.966;7.958;2023-02-02T17:50:33;98486.28;;;6.48;70.32
9281;BME280;4679;47.966;7.958;2023-02-02T17:52:35;98495.72;;;6.43;70.72
9281;BME280;4679;47.966;7.958;2023-02-02T17:54:37;98496.47;;;6.37;71.26
9281;BME280;4679;47.966;7.958;2023-02-02T17:56:39;98495.38;;;6.31;71.53
9281;BME280;4679;47.966;7.958;2023-02-02T17:58:41;98508.75;;;6.29;72.00
9281;BME280;4679;47.966;7.958;2023-02-02T18:00:44;98506.47;;;6.26;72.11
9281;BME280;4679;47.966;7.958;2023-02-02T18:02:47;98517.38;;;6.23;71.05
9281;BME280;4679;47.966;7.958;2023-02-02T18:04:50;98521.38;;;6.19;71.20
9281;BME280;4679;47.966;7.958;2023-02-02T18:06:53;98517.28;;;6.17;71.98
9281;BME280;4679;47.966;7.958;2023-02-02T18:08:54;98517.63;;;6.14;71.70
9281;BME280;4679;47.966;7.958;2023-02-02T18:10:56;98516.81;;;6.13;72.61
9281;BME280;4679;47.966;7.958;2023-02-02T18:12:58;98527.53;;;6.12;72.67
9281;BME280;4679;47.966;7.958;2023-02-02T18:15:00;98517.81;;;6.12;71.59
9281;BME280;4679;47.966;7.958;2023-02-02T18:17:02;98523.09;;;6.12;72.70
9281;BME280;4679;47.966;7.958;2023-02-02T18:19:03;98525.09;;;6.10;71.56
9281;BME280;4679;47.966;7.958;2023-02-02T18:21:08;98527.09;;;6.08;72.15
9281;BME280;4679;47.966;7.958;2023-02-02T18:23:13;98517.72;;;6.06;72.24
9281;BME280;4679;47.966;7.958;2023-02-02T18:25:14;98518.72;;;6.05;72.17
9281;BME280;4679;47.966;7.958;2023-02-02T18:27:16;98527.00;;;6.02;72.53
9281;BME280;4679;47.966;7.958;2023-02-02T18:29:19;98520.91;;;6.01;73.21
9281;BME280;4679;47.966;7.958;2023-02-02T18:31:21;98522.72;;;6.00;72.02
9281;BME280;4679;47.966;7.958;2023-02-02T18:33:23;98523.72;;;5.99;72.46
9281;BME280;4679;47.966;7.958;2023-02-02T18:35:25;98516.63;;;6.00;73.32
9281;BME280;4679;47.966;7.958;2023-02-02T18:37:27;98515.63;;;6.01;73.47
9281;BME280;4679;47.966;7.958;2023-02-02T18:39:30;98512.34;;;5.99;73.14
9281;BME280;4679;47.966;7.958;2023-02-02T18:41:32;98516.97;;;5.97;72.99